Olivebridge, NY

10:11 PM EDT on October 20, 2014 (GMT -0400)
The Vly | Change Station
CLOSE
Current Station
Personal Weather Station
Location: Stone Ridge, NY
Elevation: 880 ft
Nearby Weather Stations

Elev 880 ft 41.89 °N, 74.21 °W | Updated 14 seconds ago

Mostly Cloudy
Mostly Cloudy
47.6 °F
Feels Like 48 °F
N
0.0
Wind Variable Wind from NW
Gusts 2.0 mph

Today
High -- | Low -- °F
--% Chance of Precip.
Yesterday
High -- | Low -- °F
Precip. -- in
7:15 AM 6:07 PM
Waning Crescent, 8% visible
Pressure 29.96 in
Visibility 10.0 miles
Clouds Mostly Cloudy 11000 ft
Windchill 48 °F
Dew Point 40 °F
Humidity 74%
Rainfall 0.00 in
Snow Depth Not available.
UV 0 out of 12
Pollen .50 out of 12
PM2.5 Good
Flu Activity Sporadic
METAR KMGJ 210154Z AUTO 00000KT 10SM BKN110 07/04 A2996 RMK AO2 SLP146 T00720039 TSNO

More Conditions Fewer Conditions

Pressure 29.96 in
Visibility 10.0 miles
Clouds Mostly Cloudy 11000 ft
Windchill 48 °F
Dew Point 40 °F
Humidity 74%
Rainfall 0.00 in
Snow Depth Not available.
UV 0 out of 12
Pollen .50 out of 12
PM2.5 Good
Flu Activity Sporadic
METAR KMGJ 210154Z AUTO 00000KT 10SM BKN110 07/04 A2996 RMK AO2 SLP146 T00720039 TSNO

More Conditions Fewer Conditions

10-Day Weather Forecast

Almanac

Astronomy

Oct. 20, 2014 Rise Set
Actual Time 7:15 AM EDT 6:07 PM EDT
Civil Twilight 6:46 AM EDT 6:36 PM EDT
Nautical Twilight 6:14 AM EDT 7:08 PM EDT
Astronomical Twilight 5:42 AM EDT 7:40 PM EDT
Moon 3:58 AM EDT (10/20) 4:31 PM EDT (10/20)
Length of Visible Light 11h 49m
Length of Day
10h 52m
Tomorrow will be 2m 40s shorter.
Waning Crescent, 8% of the Moon is Illuminated
Today
Waning Crescent
Oct 23
New
Oct 30
First Quarter
Nov 6
Full
Nov 14
Last Quarter

Today's Extremes

State Highs State Lows

Community

WunderPhotos

Upload Photos

1,763,572 photos uploaded!

Nearby

Air Quality

  Air Quality AQ Index Pollutant
Yesterday Good
OZONE
Yesterday Good
PM2.5
Current Good
PM2.5
Monday Good
PM2.5
Tuesday Good
PM2.5

Snow Depth

Station Depth Elevation
No new snow has been reported.

Earthquake Activity

City Distance Mag. Time & Date
No recent earthquake activity has been reported nearby.
Minimum magnitude displayed is 2.5.

Coastal Water Temperatures

Place Temperature
No Stations Reporting

Nearby Weather Stations